Time;durP1;ratioP1;P1;durP2;ratioP2;P2;SDS_P1;SDS_P2;PMS_P1;PMS_P2;Temp;Humidity;BMP_temperature;BMP_pressure;BME280_temperature;BME280_humidity;BME280_pressure;Samples;Min_cycle;Max_cycle;Signal;HPM_P1;HPM_P2
2022/06/13 00:00:48;;;;;;;3.08;1.52;;;;;;;21.99;55.12;98839.88;5100275;28;20777;-75
2022/06/13 00:03:33;;;;;;;4.38;1.92;;;;;;;21.93;54.52;98832.59;5129857;27;20039;-75
2022/06/13 00:06:21;;;;;;;2.10;1.77;;;;;;;22.01;52.11;98828.03;5135953;27;20058;-74
2022/06/13 00:09:07;;;;;;;4.05;1.58;;;;;;;22.00;54.46;98837.00;5128466;27;20039;-75
2022/06/13 00:11:52;;;;;;;1.90;1.70;;;;;;;22.12;54.42;98832.09;5145987;27;20046;-74
2022/06/13 00:14:43;;;;;;;2.08;1.70;;;;;;;22.11;53.99;98832.28;5134846;27;20050;-76
2022/06/13 00:17:28;;;;;;;2.10;1.45;;;;;;;22.10;54.00;98826.09;5135617;27;20035;-75
2022/06/13 00:20:13;;;;;;;2.20;1.70;;;;;;;21.94;54.18;98816.41;5134875;27;20065;-74
2022/06/13 00:22:58;;;;;;;1.77;1.20;;;;;;;22.03;54.22;98807.31;5135008;27;20051;-75
2022/06/13 00:25:42;;;;;;;2.67;1.70;;;;;;;21.98;54.42;98811.56;5122419;27;20035;-73
2022/06/13 00:28:28;;;;;;;1.73;1.48;;;;;;;22.10;53.62;98803.97;5119246;27;20042;-75
2022/06/13 00:31:13;;;;;;;2.40;1.50;;;;;;;21.83;54.31;98807.00;5119673;27;20478;-75
2022/06/13 00:33:57;;;;;;;3.00;1.65;;;;;;;21.75;55.02;98805.19;5128256;27;20066;-74
2022/06/13 00:36:42;;;;;;;1.80;1.55;;;;;;;21.94;55.14;98799.56;5097774;28;20035;-74
2022/06/13 00:39:27;;;;;;;3.38;1.65;;;;;;;21.97;54.82;98797.38;5128250;27;20359;-74
2022/06/13 00:42:17;;;;;;;1.42;1.27;;;;;;;22.07;54.36;98798.97;5118672;27;20035;-74
2022/06/13 00:45:09;;;;;;;2.03;1.70;;;;;;;21.88;53.55;98799.28;5118529;27;20038;-74
2022/06/13 00:47:54;;;;;;;;;;;;;;;21.76;55.32;98796.19;5134115;27;20035;-75
2022/06/13 00:50:46;;;;;;;1.92;1.50;;;;;;;21.77;54.58;98789.84;5133856;27;19915;-75
2022/06/13 00:53:34;;;;;;;4.53;2.10;;;;;;;21.66;54.89;98788.41;5124102;27;20116;-75
2022/06/13 00:56:24;;;;;;;4.63;2.00;;;;;;;21.77;55.96;98783.69;5133184;27;20038;-76
2022/06/13 00:59:14;;;;;;;2.40;1.50;;;;;;;21.77;55.72;98784.53;5133216;27;20039;-75
2022/06/13 01:01:59;;;;;;;2.63;1.40;;;;;;;21.76;55.48;98774.00;5123714;27;20042;-76
2022/06/13 01:04:46;;;;;;;4.30;1.80;;;;;;;21.84;56.01;98783.81;5133765;27;20047;-76
2022/06/13 01:07:32;;;;;;;1.83;1.38;;;;;;;21.93;55.32;98780.09;5119768;27;20367;-75
2022/06/13 01:13:23;;;;;;;2.50;1.70;;;;;;;22.02;55.18;98768.34;5132967;27;20080;-74
2022/06/13 01:16:18;;;;;;;1.77;1.48;;;;;;;22.06;52.65;98768.81;5108911;28;20039;-75
2022/06/13 01:19:30;;;;;;;3.17;1.42;;;;;;;21.82;55.42;98761.84;5107824;27;20100;-74
2022/06/13 01:22:52;;;;;;;2.00;1.45;;;;;;;21.80;55.92;98762.03;5117701;27;20124;-74
2022/06/13 01:25:49;;;;;;;3.28;1.48;;;;;;;21.82;56.04;98756.53;5117728;27;20062;-76
2022/06/13 01:28:35;;;;;;;3.15;1.50;;;;;;;21.74;55.94;98760.06;5120483;27;20118;-75
2022/06/13 01:31:25;;;;;;;1.83;1.60;;;;;;;21.74;55.53;98755.53;5125674;27;20042;-75
2022/06/13 01:34:31;;;;;;;1.85;1.30;;;;;;;21.62;55.85;98759.63;5111787;27;20047;-74
2022/06/13 01:37:25;;;;;;;2.20;1.48;;;;;;;21.62;56.36;98756.97;5094050;28;20489;-75
2022/06/13 01:40:31;;;;;;;3.97;1.50;;;;;;;21.72;55.87;98749.56;5116032;27;20027;-74
2022/06/13 01:43:41;;;;;;;2.58;1.52;;;;;;;21.79;56.06;98741.69;5121915;27;20104;-74
2022/06/13 01:46:35;;;;;;;2.85;1.60;;;;;;;21.86;55.78;98747.16;5118261;27;20039;-76
2022/06/13 01:49:32;;;;;;;1.95;1.60;;;;;;;21.90;55.81;98754.59;5131848;27;20114;-74
2022/06/13 01:52:21;;;;;;;2.33;1.90;;;;;;;22.01;55.87;98749.84;5117272;27;20054;-75
2022/06/13 01:55:29;;;;;;;1.52;1.42;;;;;;;22.05;55.08;98751.13;5132966;27;20485;-74
2022/06/13 01:58:39;;;;;;;1.55;1.45;;;;;;;22.09;54.97;98746.28;5103018;27;20031;-74
2022/06/13 02:01:45;;;;;;;2.40;1.48;;;;;;;21.77;55.59;98743.69;5132933;27;20039;-74
2022/06/13 02:04:44;;;;;;;2.38;1.50;;;;;;;21.71;56.08;98742.56;5116540;27;20489;-73
2022/06/13 02:07:42;;;;;;;3.92;1.90;;;;;;;21.34;57.00;98731.69;5118061;27;20062;-74
2022/06/13 02:10:39;;;;;;;2.42;2.00;;;;;;;21.02;56.90;98739.66;5132521;27;20035;-74
2022/06/13 02:13:54;;;;;;;3.35;2.88;;;;;;;20.67;58.77;98742.63;5124836;27;20043;-73
2022/06/13 02:16:53;;;;;;;4.78;3.85;;;;;;;20.61;57.32;98735.31;5123689;27;20043;-73
2022/06/13 02:20:05;;;;;;;6.07;3.65;;;;;;;20.51;58.52;98745.31;5131785;27;20489;-75
2022/06/13 02:22:55;;;;;;;4.38;3.30;;;;;;;20.45;56.73;98746.81;5094065;27;20088;-74
2022/06/13 02:25:48;;;;;;;4.72;2.60;;;;;;;20.75;57.72;98746.22;5131962;27;20043;-74
2022/06/13 02:28:39;;;;;;;4.35;3.03;;;;;;;20.71;55.72;98742.28;5132630;27;20474;-74
2022/06/13 02:31:36;;;;;;;2.88;2.22;;;;;;;20.67;56.26;98744.44;5132730;27;20042;-74
2022/06/13 02:35:00;;;;;;;4.25;2.17;;;;;;;20.40;58.65;98735.88;5132683;27;20046;-74
2022/06/13 02:38:12;;;;;;;4.13;2.15;;;;;;;21.01;57.21;98738.00;5063776;28;20492;-74
2022/06/13 02:41:00;;;;;;;;;;;;;;;20.96;55.70;98732.38;5118061;27;20039;-74
2022/06/13 02:43:47;;;;;;;3.13;1.90;;;;;;;21.01;54.98;98732.69;5132660;28;19923;-74
2022/06/13 02:46:42;;;;;;;3.00;2.20;;;;;;;20.68;53.88;98735.44;5120534;27;20027;-74
2022/06/13 02:49:41;;;;;;;4.55;2.35;;;;;;;20.42;56.49;98733.84;5132104;28;20055;-74
2022/06/13 02:52:42;;;;;;;2.15;1.75;;;;;;;20.60;55.73;98733.66;5132254;28;20058;-73
2022/06/13 02:55:32;;;;;;;2.78;1.88;;;;;;;20.83;57.29;98735.56;5116906;28;20084;-73
2022/06/13 02:58:44;;;;;;;2.10;1.90;;;;;;;20.95;55.85;98732.53;5104652;28;20108;-73
2022/06/13 03:01:38;;;;;;;;;;;;;;;21.06;53.66;98740.16;5125587;28;20465;-74
2022/06/13 03:04:33;;;;;;;2.13;1.60;;;;;;;20.89;55.53;98736.72;5129681;28;20358;-73
2022/06/13 03:07:39;;;;;;;3.38;1.70;;;;;;;21.15;54.64;98739.09;5128664;28;20059;-73
2022/06/13 03:10:34;;;;;;;2.10;1.70;;;;;;;21.16;55.42;98737.25;5104019;28;20154;-75
2022/06/13 03:14:05;;;;;;;3.65;1.90;;;;;;;21.29;54.95;98731.38;5130263;28;20058;-73
2022/06/13 03:17:27;;;;;;;3.70;2.10;;;;;;;21.32;53.44;98732.84;5110632;28;20096;-73
2022/06/13 03:20:22;;;;;;;2.45;1.77;;;;;;;21.16;54.39;98730.13;5126546;28;20035;-74
2022/06/13 03:23:29;;;;;;;4.07;1.83;;;;;;;20.92;55.03;98723.09;5131545;28;20057;-76
2022/06/13 03:26:31;;;;;;;3.00;1.98;;;;;;;20.83;51.81;98735.56;5123173;28;20035;-75
2022/06/13 03:29:41;;;;;;;2.47;1.88;;;;;;;20.57;54.22;98736.66;5115898;28;20746;-75
2022/06/13 03:32:33;;;;;;;5.07;2.00;;;;;;;20.69;53.48;98729.13;5132534;28;20039;-76
2022/06/13 03:35:18;;;;;;;5.60;2.00;;;;;;;20.75;52.99;98723.13;5104399;27;20046;-75
2022/06/13 03:38:10;;;;;;;2.85;1.60;;;;;;;20.77;54.82;98726.44;5121101;27;20092;-74
2022/06/13 03:40:59;;;;;;;2.47;2.00;;;;;;;20.76;54.39;98719.44;5135189;27;20092;-75
2022/06/13 03:43:57;;;;;;;4.30;2.15;;;;;;;21.09;54.65;98715.84;5135749;27;20470;-75
2022/06/13 03:46:48;;;;;;;2.65;1.90;;;;;;;20.98;53.35;98714.41;5135111;27;20050;-74
2022/06/13 03:49:38;;;;;;;2.50;1.92;;;;;;;20.98;51.34;98719.72;5114721;27;20496;-76
2022/06/13 03:52:27;;;;;;;3.78;2.30;;;;;;;20.87;53.25;98712.09;5132358;27;20047;-76
2022/06/13 03:55:17;;;;;;;4.65;2.50;;;;;;;20.63;52.13;98716.53;5149759;27;20119;-74
2022/06/13 03:58:12;;;;;;;6.75;1.92;;;;;;;20.54;53.19;98713.88;5135044;27;20047;-74
2022/06/13 04:01:06;;;;;;;2.78;2.00;;;;;;;20.72;54.46;98714.66;5135186;27;20058;-74
2022/06/13 04:03:51;;;;;;;3.03;1.80;;;;;;;20.71;52.94;98708.47;5135722;27;20066;-75
2022/06/13 04:06:42;;;;;;;3.30;1.73;;;;;;;20.93;52.21;98706.09;5136141;27;20046;-75
2022/06/13 04:09:30;;;;;;;3.63;1.80;;;;;;;20.67;53.45;98712.50;5130532;27;20062;-75
2022/06/13 04:12:40;;;;;;;5.07;1.83;;;;;;;21.00;53.17;98715.06;5124481;27;20063;-77
2022/06/13 04:15:30;;;;;;;4.72;2.60;;;;;;;21.07;50.84;98703.72;5115442;27;20110;-77
2022/06/13 04:19:05;;;;;;;3.63;2.53;;;;;;;20.62;52.94;98706.88;5121351;27;20050;-76
2022/06/13 04:22:07;;;;;;;2.22;1.95;;;;;;;20.88;53.36;98705.75;5092629;27;20723;-76
2022/06/13 04:25:13;;;;;;;3.33;1.83;;;;;;;20.77;51.44;98701.66;5145981;27;20054;-78
2022/06/13 04:28:10;;;;;;;1.70;1.58;;;;;;;20.78;53.14;98703.31;5107607;28;20036;-75
2022/06/13 04:30:57;;;;;;;2.65;1.80;;;;;;;21.04;51.27;98703.03;5132273;27;20038;-77
2022/06/13 04:33:50;;;;;;;3.08;2.20;;;;;;;21.07;53.77;98699.19;5148333;27;20031;-76
2022/06/13 04:36:36;;;;;;;3.65;1.90;;;;;;;21.52;51.86;98706.56;5117744;27;20036;-74
2022/06/13 04:39:30;;;;;;;3.42;2.10;;;;;;;21.24;51.14;98705.25;5144013;27;20488;-74
2022/06/13 04:42:18;;;;;;;3.85;2.10;;;;;;;21.11;50.06;98707.66;5134598;27;20035;-74
2022/06/13 04:45:15;;;;;;;3.53;2.10;;;;;;;20.62;51.55;98702.38;5097135;27;20038;-74
2022/06/13 04:48:01;;;;;;;3.67;2.33;;;;;;;20.97;51.97;98702.06;5100002;27;20085;-74
2022/06/13 04:50:49;;;;;;;9.00;2.10;;;;;;;21.78;49.80;98700.06;5128275;27;20075;-74
2022/06/13 04:53:59;;;;;;;4.57;1.92;;;;;;;21.78;49.97;98708.91;5130553;27;20043;-74
2022/06/13 04:56:44;;;;;;;2.80;2.00;;;;;;;21.21;49.92;98700.28;5127349;27;20114;-74
2022/06/13 04:59:30;;;;;;;4.63;2.88;;;;;;;20.84;51.01;98707.94;5118211;27;20461;-74
2022/06/13 05:02:23;;;;;;;3.35;1.98;;;;;;;20.84;51.68;98705.28;5098080;27;21394;-72
2022/06/13 05:05:39;;;;;;;3.20;1.80;;;;;;;20.87;51.41;98706.78;5104228;27;20100;-72
2022/06/13 05:08:27;;;;;;;2.53;1.67;;;;;;;20.92;51.44;98713.25;5131184;27;20370;-72
2022/06/13 05:11:22;;;;;;;3.42;2.17;;;;;;;20.99;51.48;98712.56;5131985;27;20061;-73
2022/06/13 05:14:28;;;;;;;5.05;2.00;;;;;;;21.51;50.43;98719.06;5131511;27;20042;-72
2022/06/13 05:17:34;;;;;;;2.85;1.83;;;;;;;21.70;50.51;98716.94;5109456;27;20039;-72
2022/06/13 05:20:56;;;;;;;2.90;2.22;;;;;;;21.65;49.69;98717.47;5117525;27;20062;-72
2022/06/13 05:24:01;;;;;;;3.05;1.75;;;;;;;21.82;49.22;98712.00;5101561;27;20466;-72
2022/06/13 05:26:45;;;;;;;4.10;1.88;;;;;;;21.88;49.33;98710.47;5078365;27;20086;-75
2022/06/13 05:29:30;;;;;;;2.08;1.70;;;;;;;22.14;48.98;98711.91;5096893;27;20035;-74
2022/06/13 05:32:18;;;;;;;2.72;1.73;;;;;;;22.19;48.98;98714.00;5132450;27;20046;-75
2022/06/13 05:35:05;;;;;;;3.20;2.05;;;;;;;22.27;48.16;98713.94;5133312;27;20027;-74
2022/06/13 05:37:51;;;;;;;2.88;2.08;;;;;;;22.29;48.22;98719.94;5107544;28;20039;-72
2022/06/13 05:40:36;;;;;;;3.05;1.75;;;;;;;22.10;48.41;98726.63;5115527;27;20150;-72
2022/06/13 05:43:21;;;;;;;4.18;2.58;;;;;;;21.62;49.46;98715.16;5133533;27;20035;-74
2022/06/13 05:46:08;;;;;;;3.75;1.85;;;;;;;21.88;49.31;98721.97;5097697;27;20062;-73
2022/06/13 05:48:54;;;;;;;4.32;2.00;;;;;;;22.21;48.63;98730.69;5132412;27;20042;-73
2022/06/13 05:51:41;;;;;;;3.03;2.00;;;;;;;22.34;47.96;98736.22;5133239;27;20035;-74
2022/06/13 05:54:27;;;;;;;4.88;2.40;;;;;;;22.29;51.23;98743.94;5116927;27;20031;-76
2022/06/13 05:57:12;;;;;;;2.58;2.10;;;;;;;22.88;51.54;98744.16;5126836;27;20035;-72
2022/06/13 05:59:57;;;;;;;2.78;1.67;;;;;;;23.56;50.42;98752.91;5117021;27;20043;-74
2022/06/13 06:02:42;;;;;;;3.83;2.20;;;;;;;23.93;48.82;98748.31;5132627;27;20054;-73
2022/06/13 06:05:27;;;;;;;2.85;1.95;;;;;;;24.03;49.00;98750.66;5113406;27;20031;-74
2022/06/13 06:08:24;;;;;;;3.53;1.88;;;;;;;23.55;50.49;98756.63;5116572;27;20039;-72
2022/06/13 06:11:09;;;;;;;3.08;2.40;;;;;;;23.15;52.38;98757.81;5116394;27;20023;-70
2022/06/13 06:13:55;;;;;;;3.15;2.17;;;;;;;23.14;52.62;98761.50;5131786;27;20042;-74
2022/06/13 06:16:39;;;;;;;3.25;2.20;;;;;;;22.42;56.16;98796.66;5146628;27;20023;-71
2022/06/13 06:19:26;;;;;;;2.80;2.22;;;;;;;21.64;57.75;98838.38;5118294;27;20406;-77
2022/06/13 06:22:11;;;;;;;5.22;2.75;;;;;;;21.80;60.14;98827.84;5074367;28;20150;-77
2022/06/13 06:24:56;;;;;;;5.28;2.80;;;;;;;21.72;60.72;98837.53;5112254;27;20043;-77
2022/06/13 06:27:42;;;;;;;5.05;2.85;;;;;;;21.66;62.00;98830.22;5101658;27;20102;-78
2022/06/13 06:30:27;;;;;;;6.15;2.78;;;;;;;21.49;62.60;98827.66;5102895;27;21640;-77
2022/06/13 06:33:13;;;;;;;8.00;3.05;;;;;;;21.49;60.46;98809.03;5132788;27;20035;-76
2022/06/13 06:36:00;;;;;;;4.60;2.72;;;;;;;22.32;59.17;98831.59;5132355;27;20039;-75
2022/06/13 06:38:45;;;;;;;3.58;2.83;;;;;;;22.13;59.00;98830.28;5101750;27;20433;-75
2022/06/13 06:41:30;;;;;;;4.65;2.80;;;;;;;22.20;57.76;98823.19;5117127;27;20095;-74
2022/06/13 06:44:15;;;;;;;5.45;2.60;;;;;;;23.04;55.91;98815.22;5111165;28;20046;-71
2022/06/13 06:47:01;;;;;;;4.07;2.22;;;;;;;23.09;55.49;98815.50;5126471;28;20031;-73
2022/06/13 06:49:47;;;;;;;2.65;2.30;;;;;;;23.14;54.91;98807.72;5103982;28;20039;-74
2022/06/13 06:52:32;;;;;;;2.72;2.22;;;;;;;22.43;57.30;98825.00;5131612;28;20586;-73
2022/06/13 07:01:29;;;;;;;7.55;2.83;;;;;;;22.30;58.97;98819.44;5130268;28;20478;-72
2022/06/13 07:04:14;;;;;;;2.40;2.17;;;;;;;22.09;59.59;98824.47;5114993;28;20039;-74
2022/06/13 07:07:02;;;;;;;6.93;2.60;;;;;;;22.37;58.44;98815.91;5080819;28;20051;-75
2022/06/13 07:09:47;;;;;;;3.13;2.33;;;;;;;21.74;58.89;98800.84;5118636;27;20442;-76
2022/06/13 07:12:31;;;;;;;7.28;2.47;;;;;;;21.56;60.36;98795.78;5121149;27;20538;-82
2022/06/13 07:15:17;;;;;;;4.45;2.28;;;;;;;21.54;60.53;98795.16;5110695;27;20051;-74
2022/06/13 07:18:01;;;;;;;4.60;2.47;;;;;;;21.52;60.71;98784.69;5135810;27;20039;-74
2022/06/13 07:20:47;;;;;;;6.05;2.63;;;;;;;21.65;61.57;98785.91;5121178;27;20385;-76
2022/06/13 07:23:31;;;;;;;8.05;2.92;;;;;;;21.71;60.48;98785.22;5135404;27;20023;-75
2022/06/13 07:26:16;;;;;;;4.85;2.47;;;;;;;22.02;60.43;98794.16;5106636;27;20079;-73
2022/06/13 07:29:01;;;;;;;3.55;2.50;;;;;;;21.66;60.88;98784.91;5123375;27;20043;-73
2022/06/13 07:31:49;;;;;;;3.88;2.20;;;;;;;21.80;60.68;98791.34;5120012;27;20446;-74
2022/06/13 07:34:36;;;;;;;3.85;2.20;;;;;;;22.13;59.89;98795.59;5095539;27;20126;-78
2022/06/13 07:40:28;;;;;;;5.72;1.98;;;;;;;22.15;60.07;98799.72;5134472;27;20039;-65
2022/06/13 07:43:36;;;;;;;3.05;2.20;;;;;;;22.16;60.28;98789.91;5120200;27;20355;-78
2022/06/13 07:46:25;;;;;;;3.05;1.60;;;;;;;22.01;59.28;98788.03;5134433;27;20061;-77
2022/06/13 07:49:09;;;;;;;2.55;1.67;;;;;;;21.70;60.17;98778.22;5123115;27;20027;-75
2022/06/13 07:51:54;;;;;;;1.90;1.50;;;;;;;21.42;60.38;98770.75;5120128;27;20479;-74
2022/06/13 07:54:39;;;;;;;2.50;1.45;;;;;;;21.46;60.04;98769.38;5126234;27;20390;-75
2022/06/13 07:57:23;;;;;;;1.50;1.33;;;;;;;21.53;59.60;98764.16;5124607;27;20483;-75
2022/06/13 08:00:17;;;;;;;1.77;1.33;;;;;;;21.50;58.99;98767.19;5095809;28;20096;-73
2022/06/13 08:03:05;;;;;;;1.80;1.00;;;;;;;21.54;59.46;98768.53;5135486;27;20043;-73
2022/06/13 08:05:51;;;;;;;1.70;1.20;;;;;;;21.39;58.80;98763.94;5118924;27;20051;-73
2022/06/13 08:08:39;;;;;;;4.15;1.30;;;;;;;21.44;58.85;98763.41;5119750;27;20039;-74
2022/06/13 08:11:32;;;;;;;2.28;1.20;;;;;;;21.71;58.34;98768.38;5134850;27;20110;-74
2022/06/13 08:14:18;;;;;;;1.98;0.95;;;;;;;21.73;58.73;98766.38;5119381;27;20065;-73
2022/06/13 08:17:03;;;;;;;1.77;1.30;;;;;;;21.45;59.14;98770.38;5127474;27;20042;-74
2022/06/13 08:19:48;;;;;;;1.30;1.10;;;;;;;21.72;58.59;98773.56;5144333;27;20050;-75
2022/06/13 08:22:46;;;;;;;1.55;1.10;;;;;;;21.87;58.79;98786.97;5130000;27;20040;-74
2022/06/13 08:25:33;;;;;;;4.22;1.38;;;;;;;21.74;59.76;98782.19;5128545;27;20134;-74
2022/06/13 08:28:18;;;;;;;1.77;1.30;;;;;;;22.02;59.18;98802.16;5109526;27;20035;-74
2022/06/13 08:31:09;;;;;;;1.50;1.23;;;;;;;22.07;59.63;98806.97;5129940;27;20485;-74
2022/06/13 08:33:54;;;;;;;2.30;1.40;;;;;;;22.22;58.42;98818.53;5113617;27;20066;-75
2022/06/13 08:36:40;;;;;;;1.48;1.08;;;;;;;21.67;60.74;98789.25;5135068;27;20462;-75
2022/06/13 08:39:25;;;;;;;2.40;1.25;;;;;;;21.98;60.63;98796.38;5119427;27;20035;-75
2022/06/13 08:42:18;;;;;;;2.78;1.30;;;;;;;22.05;60.50;98796.47;5118897;27;20042;-75
2022/06/13 08:45:24;;;;;;;4.18;1.48;;;;;;;22.41;59.41;98786.97;5135358;27;20047;-74
2022/06/13 08:48:22;;;;;;;5.20;1.13;;;;;;;21.97;60.52;98773.38;5129186;27;20039;-75
2022/06/13 08:51:12;;;;;;;1.92;1.40;;;;;;;21.71;62.04;98776.38;5113201;27;20035;-75
2022/06/13 08:53:59;;;;;;;2.35;1.05;;;;;;;21.99;60.77;98778.53;5104900;28;20465;-75
2022/06/13 08:56:45;;;;;;;3.38;1.77;;;;;;;21.69;62.45;98786.41;5129300;27;20039;-74
2022/06/13 08:59:38;;;;;;;2.38;1.58;;;;;;;21.38;64.11;98777.44;5104636;27;20122;-74
2022/06/13 09:02:32;;;;;;;3.13;1.50;;;;;;;21.13;64.77;98785.56;5118936;27;20027;-74
2022/06/13 09:05:39;;;;;;;1.55;1.30;;;;;;;21.01;65.32;98777.94;5103931;27;20474;-75
2022/06/13 09:08:32;;;;;;;2.00;1.58;;;;;;;21.17;64.29;98774.38;5093689;28;20039;-74
2022/06/13 09:11:17;;;;;;;1.75;1.35;;;;;;;21.42;63.55;98784.91;5088363;28;20446;-75
2022/06/13 09:14:24;;;;;;;1.92;1.40;;;;;;;21.52;62.98;98797.16;5091638;28;20092;-73
2022/06/13 09:17:11;;;;;;;2.28;1.20;;;;;;;21.57;63.28;98809.97;5081666;28;20047;-74
2022/06/13 09:20:16;;;;;;;3.95;1.65;;;;;;;22.39;61.50;98805.84;5092365;28;20374;-74
2022/06/13 09:23:11;;;;;;;2.67;1.60;;;;;;;23.22;58.84;98785.44;5077601;28;20089;-76
2022/06/13 09:26:08;;;;;;;3.53;1.92;;;;;;;23.61;56.61;98779.91;5093751;28;20089;-74
2022/06/13 09:28:59;;;;;;;2.70;1.80;;;;;;;23.81;55.52;98789.97;5080626;28;20040;-76
2022/06/13 09:31:47;;;;;;;2.00;1.60;;;;;;;24.53;53.67;98787.25;5091262;28;20154;-75
2022/06/13 09:34:39;;;;;;;6.05;2.00;;;;;;;24.72;52.52;98782.22;5092360;28;20040;-75
2022/06/13 09:37:32;;;;;;;2.95;1.70;;;;;;;25.25;50.77;98772.00;5079445;28;20035;-74
2022/06/13 09:40:23;;;;;;;4.70;2.40;;;;;;;24.73;51.87;98771.31;5091152;28;20036;-74
2022/06/13 09:43:31;;;;;;;3.95;1.80;;;;;;;25.58;50.10;98768.53;5097263;28;20044;-75
2022/06/13 09:46:27;;;;;;;1.70;1.50;;;;;;;25.38;50.67;98774.69;5111377;28;20048;-75
2022/06/13 09:49:37;;;;;;;8.90;1.88;;;;;;;25.92;49.35;98771.28;5080899;28;20036;-76
2022/06/13 09:52:55;;;;;;;2.20;1.67;;;;;;;27.52;45.58;98777.50;5096878;28;20036;-76
2022/06/13 09:55:53;;;;;;;3.10;1.88;;;;;;;27.12;46.14;98771.31;5117939;28;20040;-73
2022/06/13 09:58:51;;;;;;;2.58;2.05;;;;;;;26.07;47.38;98779.13;5119897;28;20040;-75
2022/06/13 10:01:47;;;;;;;3.15;1.95;;;;;;;26.37;48.06;98777.91;5097836;28;20040;-76
2022/06/13 10:04:55;;;;;;;2.22;1.48;;;;;;;26.89;46.18;98769.09;5078194;28;20044;-75
2022/06/13 10:07:52;;;;;;;3.65;1.38;;;;;;;26.45;46.71;98775.00;5109113;27;20036;-76
2022/06/13 10:11:01;;;;;;;1.52;1.20;;;;;;;26.93;45.76;98763.09;5111266;28;20031;-75
2022/06/13 10:14:06;;;;;;;3.92;1.58;;;;;;;27.23;44.63;98775.19;5111156;28;20040;-75
2022/06/13 10:16:58;;;;;;;2.28;1.60;;;;;;;26.68;45.87;98768.34;5113299;28;20036;-76
2022/06/13 10:20:19;;;;;;;4.53;1.42;;;;;;;26.11;46.77;98764.28;5129557;28;20051;-75
2022/06/13 10:23:10;;;;;;;3.10;1.50;;;;;;;25.96;47.87;98764.50;5113142;28;20066;-73
2022/06/13 10:25:58;;;;;;;2.28;1.30;;;;;;;25.68;47.57;98765.50;5112592;28;20038;-76
2022/06/13 10:29:14;;;;;;;2.17;1.50;;;;;;;26.55;46.88;98758.47;5084795;28;20161;-76
2022/06/13 10:32:20;;;;;;;3.13;1.60;;;;;;;27.57;44.53;98748.09;5102219;28;20047;-74
2022/06/13 10:35:11;;;;;;;2.55;1.65;;;;;;;27.45;43.67;98744.47;5101042;28;20114;-76
2022/06/13 10:38:17;;;;;;;3.40;1.50;;;;;;;26.44;46.86;98749.19;5097980;28;20036;-75
2022/06/13 10:41:02;;;;;;;4.10;1.50;;;;;;;27.22;45.61;98746.66;5099362;28;20039;-76
2022/06/13 10:43:47;;;;;;;1.85;1.40;;;;;;;27.58;44.80;98744.38;5110183;28;20043;-74
2022/06/13 10:46:31;;;;;;;3.13;1.60;;;;;;;27.77;44.47;98737.22;5096544;28;20095;-79
2022/06/13 10:49:31;;;;;;;2.63;1.38;;;;;;;27.60;44.08;98741.47;5110615;28;20069;-78
2022/06/13 10:52:21;;;;;;;2.53;1.27;;;;;;;27.76;44.04;98740.94;5106998;28;20165;-77
2022/06/13 10:55:09;;;;;;;3.70;1.73;;;;;;;27.43;43.86;98734.75;5101261;28;20040;-85
2022/06/13 10:58:03;;;;;;;1.35;1.20;;;;;;;28.72;42.57;98747.13;5105829;28;20036;-84
2022/06/13 11:01:10;;;;;;;1.67;1.10;;;;;;;28.98;41.63;98744.34;5110199;28;20043;-79
2022/06/13 11:04:01;;;;;;;1.70;1.20;;;;;;;28.80;41.66;98737.06;5101797;28;20038;-76
2022/06/13 11:06:55;;;;;;;2.80;1.20;;;;;;;27.28;45.00;98734.22;5111652;28;20043;-74
2022/06/13 11:09:43;;;;;;;1.83;1.20;;;;;;;28.41;42.09;98730.03;5129757;28;20031;-80
2022/06/13 11:12:35;;;;;;;3.15;1.35;;;;;;;28.45;43.21;98730.44;5132034;28;20042;-76
2022/06/13 11:25:01;;;;;;;2.15;1.30;;;;;;;27.51;43.83;98714.00;5145799;27;20038;-78
2022/06/13 11:28:00;;;;;;;3.78;1.40;;;;;;;29.04;43.09;98707.53;5122010;28;20381;-79
2022/06/13 11:30:49;;;;;;;2.15;1.20;;;;;;;29.36;40.84;98702.72;5124432;27;20039;-78
2022/06/13 11:33:40;;;;;;;5.40;1.27;;;;;;;28.73;41.46;98702.09;5121715;28;20084;-81
2022/06/13 11:36:28;;;;;;;2.28;1.50;;;;;;;28.31;42.89;98692.84;5131956;28;20046;-75
2022/06/13 11:39:13;;;;;;;3.50;1.38;;;;;;;28.69;43.13;98685.59;5101572;28;20164;-84
2022/06/13 11:41:59;;;;;;;5.70;1.27;;;;;;;28.78;42.43;98696.88;5095757;28;20035;-76
2022/06/13 11:44:58;;;;;;;2.10;1.50;;;;;;;29.86;40.56;98692.63;5116939;28;20043;-76
2022/06/13 11:47:50;;;;;;;1.58;1.13;;;;;;;28.85;43.12;98702.19;5113443;28;20043;-77
2022/06/13 11:50:36;;;;;;;2.78;1.25;;;;;;;28.50;41.38;98685.59;5130992;28;20367;-79
2022/06/13 11:53:36;;;;;;;2.20;1.38;;;;;;;28.99;40.49;98681.28;5092938;28;20039;-76
2022/06/13 11:56:31;;;;;;;4.80;1.10;;;;;;;28.75;42.30;98681.16;5125011;27;20046;-81
2022/06/13 11:59:18;;;;;;;3.67;1.27;;;;;;;29.20;40.44;98677.25;5086760;27;20059;-75
2022/06/13 12:02:16;;;;;;;2.80;1.38;;;;;;;30.06;39.48;98675.25;5097324;28;20063;-76
2022/06/13 12:05:01;;;;;;;2.25;1.20;;;;;;;28.80;40.11;98665.13;5097292;27;20070;-77
2022/06/13 12:08:04;;;;;;;2.10;1.00;;;;;;;29.64;39.64;98657.28;5136214;27;20139;-68
2022/06/13 12:10:59;;;;;;;1.38;0.95;;;;;;;28.59;40.22;98648.41;5134807;27;20038;-72
2022/06/13 12:13:46;;;;;;;1.40;1.00;;;;;;;28.67;41.14;98652.66;5093866;27;20039;-73
2022/06/13 12:16:40;;;;;;;2.30;1.20;;;;;;;28.93;40.26;98642.56;5112115;27;20035;-74
2022/06/13 12:19:37;;;;;;;1.67;0.90;;;;;;;29.33;39.63;98648.44;5103012;27;20031;-77
2022/06/13 12:22:30;;;;;;;1.35;1.02;;;;;;;30.39;38.02;98642.47;5119086;27;20031;-71
2022/06/13 12:25:46;;;;;;;2.00;1.00;;;;;;;31.12;37.17;98625.75;5129714;27;20121;-74
2022/06/13 12:28:52;;;;;;;1.83;1.10;;;;;;;29.74;38.49;98652.16;5134276;27;20485;-74
2022/06/13 12:31:48;;;;;;;1.98;0.98;;;;;;;28.55;39.13;98639.13;5134050;27;20031;-73
2022/06/13 12:34:58;;;;;;;1.30;0.82;;;;;;;29.27;38.44;98634.00;5105795;27;20039;-75
2022/06/13 12:38:10;;;;;;;1.60;0.98;;;;;;;29.10;39.00;98640.06;5121253;27;20470;-73
2022/06/13 12:41:32;;;;;;;1.42;0.90;;;;;;;29.24;39.61;98637.16;5105632;27;20039;-77
2022/06/13 12:44:36;;;;;;;2.03;1.15;;;;;;;28.70;39.65;98649.50;5116715;27;20051;-73
2022/06/13 12:47:30;;;;;;;1.52;1.15;;;;;;;28.06;40.89;98622.91;5118992;27;20031;-70
2022/06/13 12:50:33;;;;;;;1.27;1.15;;;;;;;27.74;42.58;98632.75;5118187;27;20134;-70
2022/06/13 12:53:57;;;;;;;1.00;0.80;;;;;;;27.51;43.11;98625.25;5113294;27;20478;-73
2022/06/13 12:56:50;;;;;;;1.45;1.00;;;;;;;27.47;43.43;98626.75;5113169;27;20475;-85
2022/06/13 13:00:07;;;;;;;1.10;1.00;;;;;;;26.79;43.69;98632.53;5113589;28;20039;-73
2022/06/13 13:02:51;;;;;;;1.20;0.98;;;;;;;26.47;45.58;98616.38;5103888;27;20039;-75
2022/06/13 13:05:50;;;;;;;5.20;1.20;;;;;;;25.84;46.79;98622.09;5117961;27;20066;-74
2022/06/13 13:08:45;;;;;;;2.40;0.93;;;;;;;26.32;46.42;98621.00;5117399;27;20088;-74
2022/06/13 13:11:37;;;;;;;1.33;1.05;;;;;;;26.40;45.85;98622.63;5117907;27;20028;-74
2022/06/13 13:14:40;;;;;;;4.25;0.77;;;;;;;26.68;45.94;98618.78;5098909;27;20035;-79
2022/06/13 13:17:28;;;;;;;1.20;0.93;;;;;;;26.66;45.61;98603.91;5115805;27;20047;-75
2022/06/13 13:20:27;;;;;;;1.92;1.10;;;;;;;26.89;46.27;98611.41;5103121;27;20039;-77
2022/06/13 13:23:44;;;;;;;1.30;1.00;;;;;;;27.63;45.04;98603.84;5132641;27;20039;-67
2022/06/13 13:27:07;;;;;;;2.55;1.02;;;;;;;26.88;46.93;98607.06;5081995;27;20504;-72
2022/06/13 13:30:07;;;;;;;2.33;1.02;;;;;;;26.19;48.35;98608.41;5018712;28;20049;-74
2022/06/13 13:33:15;;;;;;;1.33;1.10;;;;;;;26.04;48.30;98622.06;5109183;27;20506;-77
2022/06/13 13:36:11;;;;;;;2.67;0.90;;;;;;;25.46;51.04;98624.38;5097395;27;20066;-70
2022/06/13 13:39:08;;;;;;;1.70;1.00;;;;;;;24.46;54.80;98625.81;5132788;27;20442;-74
2022/06/13 13:42:11;;;;;;;2.25;1.00;;;;;;;23.76;61.44;98622.09;5128497;27;20480;-74
2022/06/13 13:45:27;;;;;;;2.25;0.90;;;;;;;24.46;57.62;98601.72;5088710;27;20098;-68
2022/06/13 13:48:19;;;;;;;1.92;1.10;;;;;;;25.31;56.60;98603.13;5112385;27;20501;-70
2022/06/13 13:51:29;;;;;;;1.67;0.77;;;;;;;24.38;64.40;98593.84;5134366;27;20541;-72
2022/06/13 13:54:25;;;;;;;2.10;1.00;;;;;;;24.45;63.24;98603.56;5127445;27;20043;-71
2022/06/13 13:57:41;;;;;;;2.20;1.15;;;;;;;23.98;66.41;98601.47;5127245;27;20063;-69
2022/06/13 14:00:43;;;;;;;2.22;1.02;;;;;;;24.96;62.70;98604.16;5127864;27;20043;-71
2022/06/13 14:03:45;;;;;;;1.80;0.80;;;;;;;26.44;60.06;98590.81;5129557;27;20441;-71